Flippin, AR

12:54 AM CDT on April 25, 2017 (GMT -0500)
Marion County Regional

Weather History for KFLP - January, 2002

Change the Weather History Date:

Monday, January 28, 2002

  Actual Average Record
Temperature  
Mean Temperature 56 °F -  
Max Temperature 77 °F 46 °F 77 °F (2002)
Min Temperature 35 °F 27 °F 8 °F (1997)
Degree Days  
Heating Degree Days 9    
Growing Degree Days 6 (Base 50)    
Moisture  
Dew Point 38 °F    
Average Humidity 50    
Maximum Humidity 70    
Minimum Humidity 29    
Precipitation  
Precipitation 0.00 in - - ()
Sea Level Pressure  
Sea Level Pressure 29.95 in    
Wind  
Wind Speed 2 mph (SSW)    
Max Wind Speed 12 mph    
Max Gust Speed 18 mph    
Visibility 10 miles    
Events      
Averages and records for this station are not official NWS values.
T = Trace of Precipitation, MM = Missing Value Source: NWS Daily Summary

Daily Weather History Graph

Daily Weather History Graph

Search for Another Location

Airport or City:

Trip Planner

Search our weather history database for the weather conditions in past years. The results will help you decide how hot, cold, wet, or windy it might be!

Date:

Astronomy

Jan. 28, 2002 Rise Set
Actual Time 7:14 AM CST 5:32 PM CST
Civil Twilight 6:47 AM CST 5:59 PM CST
Nautical Twilight 6:16 AM CST 6:30 PM CST
Astronomical Twilight 5:45 AM CST 7:01 PM CST
Moon 5:23 PM CST (1/28) 7:14 AM CST (1/28)
Length of Visible Light 11h 12m
Length of Day
10h 17m
Full, 100% of the Moon is Illuminated
Jan 28
Full
Jan 28
Full
Feb 4
Last Quarter
Feb 12
New
Feb 20
First Quarter

Hourly Weather History & Observations

Time (CST) Temp. Windchill Dew Point Humidity Pressure Visibility Wind Dir Wind Speed Gust Speed Precip Events Conditions
12:15 AM 48.2 °F - 30.2 °F 50% 30.01 in 10.0 mi Calm Calm - N/A   Clear
12:35 AM 46.4 °F - 30.2 °F 53% 30.01 in 10.0 mi Calm Calm - N/A   Clear
12:55 AM 48.2 °F - 30.2 °F 50% 30.00 in 10.0 mi SE 3.5 mph - N/A   Clear
1:15 AM 44.6 °F - 30.2 °F 57% 30.00 in 10.0 mi Calm Calm - N/A   Clear
1:35 AM 46.4 °F - 30.2 °F 53% 30.00 in 10.0 mi Calm Calm - N/A   Clear
1:55 AM 44.6 °F - 30.2 °F 57% 30.01 in 10.0 mi Calm Calm - N/A   Clear
2:15 AM 44.6 °F - 30.2 °F 57% 30.00 in 10.0 mi Calm Calm - N/A   Clear
2:35 AM 46.4 °F - 30.2 °F 53% 30.00 in 10.0 mi Calm Calm - N/A   Clear
2:55 AM 42.8 °F - 28.4 °F 57% 30.00 in 10.0 mi Calm Calm - N/A   Clear
3:15 AM 44.6 °F - 30.2 °F 57% 29.99 in 10.0 mi Calm Calm - N/A   Clear
3:35 AM 42.8 °F - 28.4 °F 57% 29.99 in 10.0 mi Calm Calm - N/A   Clear
3:55 AM 37.4 °F - 28.4 °F 70% 29.99 in 10.0 mi Calm Calm - N/A   Clear
4:15 AM 42.8 °F - 30.2 °F 61% 30.00 in 10.0 mi Calm Calm - N/A   Clear
4:35 AM 41.0 °F - 28.4 °F 61% 30.00 in 10.0 mi Calm Calm - N/A   Clear
4:55 AM 39.2 °F - 28.4 °F 65% 29.99 in 10.0 mi Calm Calm - N/A   Clear
5:15 AM 37.4 °F - 28.4 °F 70% 29.99 in 10.0 mi Calm Calm - N/A   Clear
5:35 AM 37.4 °F - 28.4 °F 70% 29.98 in 10.0 mi Calm Calm - N/A   Clear
5:55 AM 35.6 °F - 26.6 °F 70% 29.98 in 10.0 mi Calm Calm - N/A   Clear
6:15 AM 37.4 °F - 28.4 °F 70% 29.97 in 10.0 mi Calm Calm - N/A   Clear
6:35 AM 37.4 °F - 28.4 °F 70% 29.97 in 10.0 mi Calm Calm - N/A   Clear
6:55 AM 35.6 °F - 26.6 °F 70% 29.96 in 10.0 mi Calm Calm - N/A   Clear
7:15 AM 37.4 °F - 28.4 °F 70% 29.96 in 10.0 mi Calm Calm - N/A   Clear
7:35 AM 42.8 °F - 30.2 °F 61% 29.97 in 10.0 mi Calm Calm - N/A   Clear
7:55 AM 44.6 °F 43.1 °F 30.2 °F 57% 29.97 in 10.0 mi South 3.5 mph - N/A   Clear
8:15 AM 46.4 °F - 32.0 °F 57% 29.98 in 10.0 mi Calm Calm - N/A   Clear
8:35 AM 48.2 °F - 33.8 °F 58% 29.98 in 10.0 mi South 5.8 mph - N/A   Clear
8:55 AM 53.6 °F - 35.6 °F 51% 29.97 in 10.0 mi South 6.9 mph - N/A   Clear
9:15 AM 57.2 °F - 37.4 °F 48% 29.97 in 10.0 mi South 5.8 mph - N/A   Clear
9:35 AM 59.0 °F - 37.4 °F 45% 29.97 in 5.0 mi South 8.1 mph - N/A   Clear
9:55 AM 60.8 °F - 39.2 °F 45% 29.97 in 10.0 mi SSW 9.2 mph - N/A   Clear
10:15 AM 62.6 °F - 39.2 °F 42% 29.97 in 10.0 mi South 9.2 mph - N/A   Clear
10:35 AM 64.4 °F - 42.8 °F 45% 29.98 in 10.0 mi SW 11.5 mph 17.3 mph N/A   Clear
10:55 AM 66.2 °F - 42.8 °F 43% 29.97 in 10.0 mi SSW 11.5 mph 16.1 mph N/A   Clear
11:15 AM 68.0 °F - 42.8 °F 40% 29.97 in 10.0 mi SSW 11.5 mph 17.3 mph N/A   Clear
11:35 AM 69.8 °F - 44.6 °F 40% 29.96 in 10.0 mi SSW 10.4 mph 18.4 mph N/A   Clear
11:55 AM 71.6 °F - 44.6 °F 38% 29.96 in 10.0 mi SSW 10.4 mph - N/A   Clear
12:55 PM 73.4 °F - 44.6 °F 36% 29.92 in 10.0 mi South 9.2 mph - N/A   Clear
1:15 PM 73.4 °F - 42.8 °F 33% 29.90 in 10.0 mi SW 5.8 mph - N/A   Clear
1:35 PM 75.2 °F - 44.6 °F 34% 29.90 in 10.0 mi SW 4.6 mph - N/A   Clear
1:55 PM 75.2 °F - 44.6 °F 34% 29.90 in 10.0 mi Calm Calm - N/A   Clear
2:15 PM 75.2 °F - 44.6 °F 34% 29.89 in 10.0 mi Calm Calm - N/A   Clear
2:35 PM 75.2 °F - 42.8 °F 31% 29.89 in 10.0 mi Calm Calm - N/A   Clear
2:55 PM 77.0 °F - 42.8 °F 29% 29.88 in 10.0 mi Calm Calm - N/A   Partly Cloudy
3:15 PM 75.2 °F - 42.8 °F 31% 29.89 in 10.0 mi Calm Calm - N/A   Clear
3:35 PM 73.4 °F - 42.8 °F 33% 29.89 in 10.0 mi Calm Calm - N/A   Partly Cloudy
3:55 PM 73.4 °F - 42.8 °F 33% 29.89 in 10.0 mi SW 5.8 mph - N/A   Clear
4:15 PM 73.4 °F - 42.8 °F 33% 29.89 in 10.0 mi SSW 6.9 mph - N/A   Clear
4:35 PM 73.4 °F - 42.8 °F 33% 29.89 in 10.0 mi South 6.9 mph - N/A   Clear
4:55 PM 73.4 °F - 44.6 °F 36% 29.90 in 10.0 mi SSW 3.5 mph - N/A   Clear
5:15 PM 71.6 °F - 44.6 °F 38% 29.91 in 10.0 mi Calm Calm - N/A   Clear
5:35 PM 69.8 °F - 46.4 °F 43% 29.91 in 10.0 mi South 4.6 mph - N/A   Clear
5:55 PM 68.0 °F - 46.4 °F 46% 29.91 in 10.0 mi Calm Calm - N/A   Clear
6:15 PM 66.2 °F - 46.4 °F 49% 29.91 in 10.0 mi Calm Calm - N/A   Clear
6:35 PM 66.2 °F - 46.4 °F 49% 29.91 in 10.0 mi Calm Calm - N/A   Clear
6:55 PM 64.4 °F - 46.4 °F 52% 29.91 in 10.0 mi Calm Calm - N/A   Clear
7:15 PM 64.4 °F - 46.4 °F 52% 29.91 in 10.0 mi Calm Calm - N/A   Clear
7:35 PM 64.4 °F - 48.2 °F 56% 29.91 in 10.0 mi Calm Calm - N/A   Clear
7:55 PM 64.4 °F - 48.2 °F 56% 29.92 in 10.0 mi Calm Calm - N/A   Clear
8:15 PM 64.4 °F - 48.2 °F 56% 29.92 in 10.0 mi Calm Calm - N/A   Clear
8:35 PM 62.6 °F - 48.2 °F 59% 29.92 in 10.0 mi Calm Calm - N/A   Clear
8:55 PM 62.6 °F - 48.2 °F 59% 29.92 in 10.0 mi Calm Calm - N/A   Clear
9:15 PM 62.6 °F - 50.0 °F 63% 29.92 in 10.0 mi Calm Calm - N/A   Clear
9:35 PM 64.4 °F - 50.0 °F 59% 29.92 in 10.0 mi Calm Calm - N/A   Clear
9:55 PM 64.4 °F - 51.8 °F 64% 29.92 in 10.0 mi Calm Calm - N/A   Clear
10:15 PM 62.6 °F - 51.8 °F 68% 29.92 in 10.0 mi Calm Calm - N/A   Clear
10:35 PM 62.6 °F - 51.8 °F 68% 29.92 in 10.0 mi Calm Calm - N/A   Clear
10:55 PM 62.6 °F - 51.8 °F 68% 29.92 in 10.0 mi Calm Calm - N/A   Clear
11:15 PM 62.6 °F - 51.8 °F 68% 29.92 in 10.0 mi Calm Calm - N/A   Clear
11:35 PM 62.6 °F - 51.8 °F 68% 29.92 in 10.0 mi Calm Calm - N/A   Clear
11:55 PM 60.8 °F - 51.8 °F 72% 29.92 in 10.0 mi Calm Calm - N/A   Clear